PAGS Airport Information

Runway Information
Runway 02 Length 3010 ft width 60 ft
Elevation 28 ft Threshold 0 ft Heading 41
Runway 20 Length 3010 ft Width 60 ft
Elevation 30 ft Threshold 0 ft Heading 221
Runway 11 Length 6720 ft width 150 ft
Elevation 34 ft Threshold 0 ft Heading 135
Runway 29 Length 6720 ft Width 150 ft
Elevation 26 ft Threshold 0 ft Heading 315
Airport Frequencies
Type AWOS Name AWOS 3 Frequency 125.9 MHZ
Type CNTR Name ANCHORAGE Frequency 133.2 MHZ
Type CTAF Name CTAF Frequency 122.5 MHZ
Type RCO Name JUNEAU RDO Frequency 122.65 MHZ
Airport Navaids
Type NDB Name Gustavus Frequency 219 KHZ
Airport Weather Information & NOTAM
ADDS - METARS form results

(1035 UTC 17 November 2019)
Data provider http://aviationweather.gov/metar/data/
 
METAR text: PAGS 171020Z AUTO 34005KT 4SM -RA BR SCT011 OVC020 05/05 A2909 RMK AO2 P0005
Conditions at: PAGS (GUSTAVUS , AK, US) observed 1020 UTC 17 November 2019
Temperature: 5.0°C (41°F)
Dewpoint: 5.0°C (41°F) [RH = 100%]
Pressure (altimeter): 29.09 inches Hg (985.2 mb)
Winds: from the NNW (340 degrees) at 6 MPH (5 knots; 2.6 m/s)
Visibility: 4 miles ( 6 km)
Ceiling: 2000 feet AGL
Clouds: scattered clouds at 1100 feet AGL
overcast cloud deck at 2000 feet AGL
Weather: -RA BR  (light rain, mist)

METAR text: PAGS 171007Z AUTO 34005KT 5SM RA BR BKN011 OVC020 05/05 A2909 RMK AO2 P0002
Conditions at: PAGS (GUSTAVUS , AK, US) observed 1007 UTC 17 November 2019
Temperature: 5.0°C (41°F)
Dewpoint: 5.0°C (41°F) [RH = 100%]
Pressure (altimeter): 29.09 inches Hg (985.2 mb)
Winds: from the NNW (340 degrees) at 6 MPH (5 knots; 2.6 m/s)
Visibility: 5 miles ( 8 km)
Ceiling: 1100 feet AGL
Clouds: broken clouds at 1100 feet AGL
overcast cloud deck at 2000 feet AGL
Weather: RA BR  (moderate rain, mist)

METAR text: PAGS 170956Z AUTO 33005KT 7SM -RA SCT013 OVC020 05/05 A2909 RMK AO2 SLP850 P0007 T00500050
Conditions at: PAGS (GUSTAVUS , AK, US) observed 0956 UTC 17 November 2019
Temperature: 5.0°C (41°F)
Dewpoint: 5.0°C (41°F) [RH = 100%]
Pressure (altimeter): 29.09 inches Hg (985.2 mb)
[Sea-level pressure:  985.0 mb]
Winds: from the NNW (330 degrees) at 6 MPH (5 knots; 2.6 m/s)
Visibility: 7 miles (11 km)
Ceiling: 2000 feet AGL
Clouds: scattered clouds at 1300 feet AGL
overcast cloud deck at 2000 feet AGL
Weather: -RA  (light rain)

Forecast for: PAGS (GUSTAVUS , AK, US)
Text: PAGS 170537Z 1706/1806 35007KT P6SM -RA BKN015 OVC025
Forecast period: 0600 to 0900 UTC 17 November 2019
Forecast type: FROM: standard forecast or significant change
Winds: from the N (350 degrees) at 8 MPH (7 knots; 3.6 m/s)
Visibility: 6 or more miles 10+ km)
Ceiling: 1500 feet AGL
Clouds: broken clouds at 1500 feet AGL
overcast cloud deck at 2500 feet AGL
Weather: -RA  (light rain)
Text: FM170900 03007KT P6SM -RA SCT007 OVC015
Forecast period: 0900 to 1800 UTC 17 November 2019
Forecast type: FROM: standard forecast or significant change
Winds: from the NNE (30 degrees) at 8 MPH (7 knots; 3.6 m/s)
Visibility: 6 or more miles 10+ km)
Ceiling: 1500 feet AGL
Clouds: scattered clouds at 700 feet AGL
overcast cloud deck at 1500 feet AGL
Weather: -RA  (light rain)
Text: FM171800 23012G22KT P6SM -RA OVC025 WS020/25040KT
Forecast period: 1800 UTC 17 November 2019 to 0000 UTC 18 November 2019
Forecast type: FROM: standard forecast or significant change
Winds: from the SW (230 degrees) at 14 MPH (12 knots; 6.2 m/s)
gusting to 25 MPH (22 knots; 11.3 m/s)
Visibility: 6 or more miles 10+ km)
Ceiling: 2500 feet AGL
Clouds: overcast cloud deck at 2500 feet AGL
Wind Shear: at 2000 feet ( 610 m) AGL, from the WSW (250 degrees) at 46 MPH (40 knots; 20.8 m/s)
Weather: -RA  (light rain)
Text: FM180000 20010KT P6SM -SHRA OVC030 AMD LTD TO CLD VIS AND WIND
Forecast period: 0000 to 0600 UTC 18 November 2019
Forecast type: FROM: standard forecast or significant change
Winds: from the SSW (200 degrees) at 12 MPH (10 knots; 5.1 m/s)
Visibility: 6 or more miles 10+ km)
Ceiling: 3000 feet AGL
Clouds: overcast cloud deck at 3000 feet AGL
Weather: -SHRA  (light rain showers)